sensor_id;sensor_type;location;lat;lon;timestamp;pressure;altitude;pressure_sealevel;temperature;humidity
20160;BME280;50187;50.492;12.134;2022-09-23T00:02:39;98094.16;;;17.84;46.46
20160;BME280;50187;50.492;12.134;2022-09-23T00:05:26;98089.75;;;17.83;46.48
20160;BME280;50187;50.492;12.134;2022-09-23T00:08:11;98109.28;;;17.76;46.40
20160;BME280;50187;50.492;12.134;2022-09-23T00:11:06;98085.38;;;17.82;46.58
20160;BME280;50187;50.492;12.134;2022-09-23T00:13:54;98091.59;;;17.83;46.36
20160;BME280;50187;50.492;12.134;2022-09-23T00:16:39;98078.28;;;17.81;46.45
20160;BME280;50187;50.492;12.134;2022-09-23T00:19:25;98085.38;;;17.82;46.63
20160;BME280;50187;50.492;12.134;2022-09-23T00:22:10;98087.34;;;17.80;46.67
20160;BME280;50187;50.492;12.134;2022-09-23T00:24:55;98080.25;;;17.79;46.56
20160;BME280;50187;50.492;12.134;2022-09-23T00:27:40;98082.09;;;17.79;46.68
20160;BME280;50187;50.492;12.134;2022-09-23T00:30:26;98082.25;;;17.77;46.60
20160;BME280;50187;50.492;12.134;2022-09-23T00:33:11;98074.31;;;17.76;46.51
20160;BME280;50187;50.492;12.134;2022-09-23T00:36:01;98083.94;;;17.78;46.74
20160;BME280;50187;50.492;12.134;2022-09-23T00:38:46;98073.19;;;17.78;46.45
20160;BME280;50187;50.492;12.134;2022-09-23T00:41:31;98074.16;;;17.77;46.46
20160;BME280;50187;50.492;12.134;2022-09-23T00:44:40;98080.53;;;17.76;46.58
20160;BME280;50187;50.492;12.134;2022-09-23T00:47:44;98070.63;;;17.77;46.51
20160;BME280;50187;50.492;12.134;2022-09-23T00:50:35;98065.34;;;17.75;46.60
20160;BME280;50187;50.492;12.134;2022-09-23T00:53:23;98072.59;;;17.75;46.61
20160;BME280;50187;50.492;12.134;2022-09-23T00:56:11;98067.34;;;17.73;46.69
20160;BME280;50187;50.492;12.134;2022-09-23T00:58:58;98064.66;;;17.73;46.63
20160;BME280;50187;50.492;12.134;2022-09-23T01:01:44;98063.09;;;17.71;46.52
20160;BME280;50187;50.492;12.134;2022-09-23T01:04:30;98063.81;;;17.73;46.58
20160;BME280;50187;50.492;12.134;2022-09-23T01:07:16;98066.66;;;17.71;46.54
20160;BME280;50187;50.492;12.134;2022-09-23T01:10:01;98062.25;;;17.70;46.61
20160;BME280;50187;50.492;12.134;2022-09-23T01:16:53;98057.84;;;17.69;46.68
20160;BME280;50187;50.492;12.134;2022-09-23T01:35:41;98038.81;;;17.61;46.74
20160;BME280;50187;50.492;12.134;2022-09-23T01:38:40;98031.63;;;17.61;46.88
20160;BME280;50187;50.492;12.134;2022-09-23T01:44:44;98029.06;;;17.60;46.69
20160;BME280;50187;50.492;12.134;2022-09-23T01:47:38;98027.09;;;17.62;46.79
20160;BME280;50187;50.492;12.134;2022-09-23T01:50:30;98028.94;;;17.61;46.64
20160;BME280;50187;50.492;12.134;2022-09-23T01:54:07;98023.56;;;17.61;46.70
20160;BME280;50187;50.492;12.134;2022-09-23T01:57:05;98022.97;;;17.58;46.70
20160;BME280;50187;50.492;12.134;2022-09-23T02:00:07;98011.91;;;17.61;46.76
20160;BME280;50187;50.492;12.134;2022-09-23T02:03:01;98006.53;;;17.61;46.73
20160;BME280;50187;50.492;12.134;2022-09-23T02:06:00;98006.81;;;17.58;46.66
20160;BME280;50187;50.492;12.134;2022-09-23T02:08:55;98020.13;;;17.59;46.76
20160;BME280;50187;50.492;12.134;2022-09-23T02:11:45;98019.28;;;17.59;46.61
20160;BME280;50187;50.492;12.134;2022-09-23T02:14:41;98008.53;;;17.59;46.85
20160;BME280;50187;50.492;12.134;2022-09-23T02:17:35;98013.03;;;17.58;46.69
20160;BME280;50187;50.492;12.134;2022-09-23T02:20:28;98006.97;;;17.56;46.81
20160;BME280;50187;50.492;12.134;2022-09-23T02:23:16;98002.00;;;17.51;46.88
20160;BME280;50187;50.492;12.134;2022-09-23T02:26:12;98005.38;;;17.54;46.78
20160;BME280;50187;50.492;12.134;2022-09-23T02:40:43;97998.28;;;17.52;46.87
20160;BME280;50187;50.492;12.134;2022-09-23T02:43:56;97991.38;;;17.50;46.97
20160;BME280;50187;50.492;12.134;2022-09-23T02:46:44;97994.16;;;17.48;46.82
20160;BME280;50187;50.492;12.134;2022-09-23T02:49:31;97980.72;;;17.48;46.98
20160;BME280;50187;50.492;12.134;2022-09-23T02:52:16;97988.78;;;17.48;47.02
20160;BME280;50187;50.492;12.134;2022-09-23T02:55:02;97977.88;;;17.40;46.78
20160;BME280;50187;50.492;12.134;2022-09-23T02:57:48;97999.69;;;17.47;46.91
20160;BME280;50187;50.492;12.134;2022-09-23T03:01:13;97989.06;;;17.45;46.99
20160;BME280;50187;50.492;12.134;2022-09-23T03:07:12;97985.66;;;17.43;47.02
20160;BME280;50187;50.492;12.134;2022-09-23T03:16:01;97970.50;;;17.42;47.03
20160;BME280;50187;50.492;12.134;2022-09-23T03:22:09;97970.50;;;17.42;47.09
20160;BME280;50187;50.492;12.134;2022-09-23T03:25:04;97979.56;;;17.41;47.02
20160;BME280;50187;50.492;12.134;2022-09-23T03:27:54;97962.59;;;17.41;46.97
20160;BME280;50187;50.492;12.134;2022-09-23T03:30:41;97966.97;;;17.42;46.98
20160;BME280;50187;50.492;12.134;2022-09-23T03:33:27;97960.88;;;17.40;47.04
20160;BME280;50187;50.492;12.134;2022-09-23T03:36:16;97971.78;;;17.38;46.93
20160;BME280;50187;50.492;12.134;2022-09-23T03:39:41;97963.44;;;17.41;46.98
20160;BME280;50187;50.492;12.134;2022-09-23T03:42:29;97960.16;;;17.38;47.07
20160;BME280;50187;50.492;12.134;2022-09-23T03:45:17;97951.22;;;17.37;46.90
20160;BME280;50187;50.492;12.134;2022-09-23T03:48:04;97949.84;;;17.33;47.06
20160;BME280;50187;50.492;12.134;2022-09-23T03:50:50;97956.06;;;17.33;46.88
20160;BME280;50187;50.492;12.134;2022-09-23T03:53:35;97957.63;;;17.36;47.15
20160;BME280;50187;50.492;12.134;2022-09-23T03:56:20;97954.06;;;17.36;47.08
20160;BME280;50187;50.492;12.134;2022-09-23T03:59:05;97933.53;;;17.25;47.09
20160;BME280;50187;50.492;12.134;2022-09-23T04:01:50;97948.69;;;17.36;46.92
20160;BME280;50187;50.492;12.134;2022-09-23T04:04:37;97947.84;;;17.35;46.91
20160;BME280;50187;50.492;12.134;2022-09-23T04:07:25;97967.66;;;17.34;47.05
20160;BME280;50187;50.492;12.134;2022-09-23T04:10:10;97944.31;;;17.34;46.92
20160;BME280;50187;50.492;12.134;2022-09-23T04:12:55;97937.09;;;17.35;46.96
20160;BME280;50187;50.492;12.134;2022-09-23T04:15:41;97935.38;;;17.34;46.97
20160;BME280;50187;50.492;12.134;2022-09-23T04:18:26;97929.16;;;17.33;47.00
20160;BME280;50187;50.492;12.134;2022-09-23T04:21:11;97934.53;;;17.33;46.91
20160;BME280;50187;50.492;12.134;2022-09-23T04:23:56;97935.66;;;17.31;46.88
20160;BME280;50187;50.492;12.134;2022-09-23T04:26:42;97938.34;;;17.31;47.02
20160;BME280;50187;50.492;12.134;2022-09-23T04:29:28;97924.91;;;17.31;47.04
20160;BME280;50187;50.492;12.134;2022-09-23T04:32:13;97934.22;;;17.27;47.05
20160;BME280;50187;50.492;12.134;2022-09-23T04:34:58;97933.25;;;17.28;47.06
20160;BME280;50187;50.492;12.134;2022-09-23T04:37:46;97937.31;;;17.22;47.09
20160;BME280;50187;50.492;12.134;2022-09-23T04:40:32;97929.13;;;17.24;47.03
20160;BME280;50187;50.492;12.134;2022-09-23T04:43:18;97938.91;;;17.25;47.10
20160;BME280;50187;50.492;12.134;2022-09-23T04:46:09;97931.94;;;17.22;47.31
20160;BME280;50187;50.492;12.134;2022-09-23T04:48:55;97931.94;;;17.22;47.21
20160;BME280;50187;50.492;12.134;2022-09-23T04:51:40;97931.81;;;17.24;47.16
20160;BME280;50187;50.492;12.134;2022-09-23T04:54:27;97943.53;;;17.23;47.19
20160;BME280;50187;50.492;12.134;2022-09-23T04:57:13;97931.22;;;17.20;47.34
20160;BME280;50187;50.492;12.134;2022-09-23T04:59:58;97924.53;;;17.14;47.23
20160;BME280;50187;50.492;12.134;2022-09-23T05:02:44;97930.22;;;17.21;47.19
20160;BME280;50187;50.492;12.134;2022-09-23T05:05:29;97936.44;;;17.22;47.06
20160;BME280;50187;50.492;12.134;2022-09-23T05:08:15;97939.56;;;17.17;47.30
20160;BME280;50187;50.492;12.134;2022-09-23T05:11:02;97918.88;;;17.08;47.19
20160;BME280;50187;50.492;12.134;2022-09-23T05:13:52;97942.09;;;17.19;47.22
20160;BME280;50187;50.492;12.134;2022-09-23T05:16:38;97939.56;;;17.17;47.31
20160;BME280;50187;50.492;12.134;2022-09-23T05:19:23;97941.25;;;17.18;47.21
20160;BME280;50187;50.492;12.134;2022-09-23T05:22:08;97935.88;;;17.18;47.27
20160;BME280;50187;50.492;12.134;2022-09-23T05:24:53;97936.03;;;17.16;47.41
20160;BME280;50187;50.492;12.134;2022-09-23T05:27:38;97937.75;;;17.17;47.40
20160;BME280;50187;50.492;12.134;2022-09-23T05:30:23;97939.69;;;17.15;47.34
20160;BME280;50187;50.492;12.134;2022-09-23T05:33:09;97933.34;;;17.16;47.28
20160;BME280;50187;50.492;12.134;2022-09-23T05:35:54;97926.25;;;17.15;47.25
20160;BME280;50187;50.492;12.134;2022-09-23T05:38:40;97929.91;;;17.14;47.22
20160;BME280;50187;50.492;12.134;2022-09-23T05:41:26;97932.47;;;17.16;47.18
20160;BME280;50187;50.492;12.134;2022-09-23T05:44:11;97932.47;;;17.16;47.26
20160;BME280;50187;50.492;12.134;2022-09-23T05:46:56;97931.63;;;17.15;47.25
20160;BME280;50187;50.492;12.134;2022-09-23T05:49:41;97919.44;;;17.11;47.24
20160;BME280;50187;50.492;12.134;2022-09-23T05:52:44;97923.56;;;17.15;47.33
20160;BME280;50187;50.492;12.134;2022-09-23T05:55:30;97925.28;;;17.16;47.39
20160;BME280;50187;50.492;12.134;2022-09-23T05:58:16;97928.94;;;17.15;47.44
20160;BME280;50187;50.492;12.134;2022-09-23T06:01:08;97935.88;;;17.18;47.41
20160;BME280;50187;50.492;12.134;2022-09-23T06:03:55;97934.78;;;17.21;47.23
20160;BME280;50187;50.492;12.134;2022-09-23T06:06:41;97931.34;;;17.19;47.40
20160;BME280;50187;50.492;12.134;2022-09-23T06:09:27;97933.75;;;17.22;47.21
20160;BME280;50187;50.492;12.134;2022-09-23T06:12:20;97932.22;;;17.19;47.27
20160;BME280;50187;50.492;12.134;2022-09-23T06:15:06;97930.50;;;17.18;47.39
20160;BME280;50187;50.492;12.134;2022-09-23T06:17:51;97931.06;;;17.22;47.32
20160;BME280;50187;50.492;12.134;2022-09-23T06:20:36;97931.53;;;17.27;47.25
20160;BME280;50187;50.492;12.134;2022-09-23T06:23:21;97930.69;;;17.26;47.14
20160;BME280;50187;50.492;12.134;2022-09-23T06:26:14;97937.38;;;17.32;47.25
20160;BME280;50187;50.492;12.134;2022-09-23T06:29:01;97923.78;;;17.33;47.14
20160;BME280;50187;50.492;12.134;2022-09-23T06:31:48;97932.41;;;17.37;47.19
20160;BME280;50187;50.492;12.134;2022-09-23T06:34:33;97926.34;;;17.35;46.95
20160;BME280;50187;50.492;12.134;2022-09-23T06:37:34;97937.69;;;17.39;46.98
20160;BME280;50187;50.492;12.134;2022-09-23T06:40:19;97933.16;;;17.39;47.06
20160;BME280;50187;50.492;12.134;2022-09-23T06:43:07;97940.22;;;17.40;47.31
20160;BME280;50187;50.492;12.134;2022-09-23T06:45:57;97934.28;;;17.46;47.17
20160;BME280;50187;50.492;12.134;2022-09-23T06:48:42;97928.50;;;17.51;46.97
20160;BME280;50187;50.492;12.134;2022-09-23T06:51:30;97926.53;;;17.53;46.98
20160;BME280;50187;50.492;12.134;2022-09-23T06:54:15;97929.66;;;17.58;46.92
20160;BME280;50187;50.492;12.134;2022-09-23T06:57:00;97941.00;;;17.62;46.75
20160;BME280;50187;50.492;12.134;2022-09-23T06:59:45;97927.56;;;17.62;46.87
20160;BME280;50187;50.492;12.134;2022-09-23T07:02:30;97931.81;;;17.64;46.65
20160;BME280;50187;50.492;12.134;2022-09-23T07:05:16;97934.38;;;17.66;46.81
20160;BME280;50187;50.492;12.134;2022-09-23T07:08:01;97932.22;;;17.69;46.79
20160;BME280;50187;50.492;12.134;2022-09-23T07:10:53;97926.19;;;17.77;46.70
20160;BME280;50187;50.492;12.134;2022-09-23T07:13:39;97927.75;;;17.80;46.47
20160;BME280;50187;50.492;12.134;2022-09-23T07:16:25;97923.19;;;17.80;46.51
20160;BME280;50187;50.492;12.134;2022-09-23T07:19:11;97922.63;;;17.86;46.60
20160;BME280;50187;50.492;12.134;2022-09-23T07:21:56;97929.22;;;17.94;46.30
20160;BME280;50187;50.492;12.134;2022-09-23T07:24:41;97919.88;;;17.98;46.38
20160;BME280;50187;50.492;12.134;2022-09-23T07:27:26;97929.63;;;17.99;46.21
20160;BME280;50187;50.492;12.134;2022-09-23T07:30:12;97918.88;;;17.99;46.30
20160;BME280;50187;50.492;12.134;2022-09-23T07:33:09;97927.38;;;17.94;46.41
20160;BME280;50187;50.492;12.134;2022-09-23T07:36:17;97917.72;;;17.92;46.48
20160;BME280;50187;50.492;12.134;2022-09-23T07:39:02;97922.56;;;17.98;46.45
20160;BME280;50187;50.492;12.134;2022-09-23T07:41:48;97916.31;;;17.97;46.41
20160;BME280;50187;50.492;12.134;2022-09-23T07:44:34;97919.16;;;17.96;46.42
20160;BME280;50187;50.492;12.134;2022-09-23T07:47:19;97923.09;;;17.92;46.71
20160;BME280;50187;50.492;12.134;2022-09-23T07:50:05;97928.66;;;18.00;46.47
20160;BME280;50187;50.492;12.134;2022-09-23T07:52:51;97912.94;;;18.05;46.47
20160;BME280;50187;50.492;12.134;2022-09-23T07:55:36;97914.06;;;18.12;46.42
20160;BME280;50187;50.492;12.134;2022-09-23T07:58:22;97916.47;;;18.15;46.28
20160;BME280;50187;50.492;12.134;2022-09-23T08:01:09;97917.06;;;18.19;46.40
20160;BME280;50187;50.492;12.134;2022-09-23T08:03:59;97902.44;;;18.22;46.07
20160;BME280;50187;50.492;12.134;2022-09-23T08:06:47;97922.56;;;18.27;46.12
20160;BME280;50187;50.492;12.134;2022-09-23T08:09:37;97912.38;;;18.31;45.99
20160;BME280;50187;50.492;12.134;2022-09-23T08:12:26;97908.41;;;18.35;46.03
20160;BME280;50187;50.492;12.134;2022-09-23T08:15:13;97902.72;;;18.38;46.02
20160;BME280;50187;50.492;12.134;2022-09-23T08:17:58;97904.97;;;18.43;45.90
20160;BME280;50187;50.492;12.134;2022-09-23T08:20:44;97901.31;;;18.44;45.72
20160;BME280;50187;50.492;12.134;2022-09-23T08:23:32;97915.06;;;18.50;45.93
20160;BME280;50187;50.492;12.134;2022-09-23T08:26:18;97908.38;;;18.54;45.70
20160;BME280;50187;50.492;12.134;2022-09-23T08:29:06;97903.84;;;18.55;45.88
20160;BME280;50187;50.492;12.134;2022-09-23T08:31:54;97903.13;;;18.63;45.80
20160;BME280;50187;50.492;12.134;2022-09-23T08:34:39;97905.53;;;18.66;45.71
20160;BME280;50187;50.492;12.134;2022-09-23T08:37:24;97905.25;;;18.69;45.76
20160;BME280;50187;50.492;12.134;2022-09-23T08:40:09;97899.00;;;18.68;45.46
20160;BME280;50187;50.492;12.134;2022-09-23T08:42:54;97893.88;;;18.75;45.49
20160;BME280;50187;50.492;12.134;2022-09-23T08:45:41;97896.16;;;18.80;45.32
20160;BME280;50187;50.492;12.134;2022-09-23T08:48:29;97895.69;;;18.84;45.48
20160;BME280;50187;50.492;12.134;2022-09-23T08:51:24;97889.91;;;18.89;45.23
20160;BME280;50187;50.492;12.134;2022-09-23T08:54:16;97887.78;;;18.93;45.36
20160;BME280;50187;50.492;12.134;2022-09-23T08:57:03;97906.03;;;18.99;45.15
20160;BME280;50187;50.492;12.134;2022-09-23T08:59:49;97887.88;;;19.01;45.18
20160;BME280;50187;50.492;12.134;2022-09-23T09:02:34;97894.81;;;19.03;44.97
20160;BME280;50187;50.492;12.134;2022-09-23T09:05:26;97889.00;;;19.08;45.07
20160;BME280;50187;50.492;12.134;2022-09-23T09:08:12;97885.00;;;19.12;44.98
20160;BME280;50187;50.492;12.134;2022-09-23T09:10:58;97883.72;;;19.16;44.75
20160;BME280;50187;50.492;12.134;2022-09-23T09:13:52;97890.63;;;19.19;44.83
20160;BME280;50187;50.492;12.134;2022-09-23T09:16:59;97890.22;;;19.24;44.66
20160;BME280;50187;50.492;12.134;2022-09-23T09:20:50;97891.72;;;19.26;44.74
20160;BME280;50187;50.492;12.134;2022-09-23T09:23:30;97883.22;;;19.31;44.81
20160;BME280;50187;50.492;12.134;2022-09-23T09:26:37;97871.97;;;19.35;44.67
20160;BME280;50187;50.492;12.134;2022-09-23T09:29:27;97864.44;;;19.39;44.70
20160;BME280;50187;50.492;12.134;2022-09-23T09:32:26;97868.53;;;19.43;44.68
20160;BME280;50187;50.492;12.134;2022-09-23T09:35:26;97863.97;;;19.44;44.57
20160;BME280;50187;50.492;12.134;2022-09-23T09:38:18;97855.28;;;19.50;44.53
20160;BME280;50187;50.492;12.134;2022-09-23T09:41:16;97849.03;;;19.49;44.43
20160;BME280;50187;50.492;12.134;2022-09-23T09:44:13;97843.19;;;19.54;44.29
20160;BME280;50187;50.492;12.134;2022-09-23T09:50:04;97842.72;;;19.59;44.33
20160;BME280;50187;50.492;12.134;2022-09-23T09:52:49;97839.72;;;19.62;44.15
20160;BME280;50187;50.492;12.134;2022-09-23T09:55:40;97828.22;;;19.60;44.23
20160;BME280;50187;50.492;12.134;2022-09-23T09:58:48;97827.78;;;19.64;44.15
20160;BME280;50187;50.492;12.134;2022-09-23T10:01:34;97822.25;;;19.66;44.29
20160;BME280;50187;50.492;12.134;2022-09-23T10:04:30;97823.91;;;19.67;44.24
20160;BME280;50187;50.492;12.134;2022-09-23T10:07:24;97816.53;;;19.69;44.10
20160;BME280;50187;50.492;12.134;2022-09-23T10:10:18;97821.06;;;19.68;44.18
20160;BME280;50187;50.492;12.134;2022-09-23T10:13:21;97823.63;;;19.70;44.10
20160;BME280;50187;50.492;12.134;2022-09-23T10:16:14;97811.66;;;19.72;44.12
20160;BME280;50187;50.492;12.134;2022-09-23T10:19:01;97814.19;;;19.74;43.98
20160;BME280;50187;50.492;12.134;2022-09-23T10:21:51;97810.50;;;19.75;44.04
20160;BME280;50187;50.492;12.134;2022-09-23T10:24:39;97807.66;;;19.77;43.98
20160;BME280;50187;50.492;12.134;2022-09-23T10:27:31;97803.81;;;19.79;44.02
20160;BME280;50187;50.492;12.134;2022-09-23T10:30:26;97798.28;;;19.81;44.17
20160;BME280;50187;50.492;12.134;2022-09-23T10:33:25;97800.25;;;19.79;44.16
20160;BME280;50187;50.492;12.134;2022-09-23T10:36:11;97790.63;;;19.76;43.91
20160;BME280;50187;50.492;12.134;2022-09-23T10:39:00;97792.59;;;19.74;44.03
20160;BME280;50187;50.492;12.134;2022-09-23T10:45:48;97786.53;;;19.72;44.31
20160;BME280;50187;50.492;12.134;2022-09-23T10:49:05;97792.75;;;19.72;44.04
20160;BME280;50187;50.492;12.134;2022-09-23T11:02:05;97782.50;;;19.58;44.57
20160;BME280;50187;50.492;12.134;2022-09-23T11:08:12;97770.41;;;19.62;44.51
20160;BME280;50187;50.492;12.134;2022-09-23T11:11:09;97776.66;;;19.63;44.35
20160;BME280;50187;50.492;12.134;2022-09-23T11:17:27;97761.69;;;19.68;44.35
20160;BME280;50187;50.492;12.134;2022-09-23T11:20:56;97761.56;;;19.70;44.33
20160;BME280;50187;50.492;12.134;2022-09-23T11:26:43;97751.84;;;19.77;44.22
20160;BME280;50187;50.492;12.134;2022-09-23T11:36:08;97742.81;;;19.86;44.03
20160;BME280;50187;50.492;12.134;2022-09-23T11:38:57;97736.75;;;19.84;43.74
20160;BME280;50187;50.492;12.134;2022-09-23T11:41:45;97738.56;;;19.84;43.93
20160;BME280;50187;50.492;12.134;2022-09-23T11:44:36;97726.50;;;19.78;43.95
20160;BME280;50187;50.492;12.134;2022-09-23T11:47:35;97731.50;;;19.83;44.02
20160;BME280;50187;50.492;12.134;2022-09-23T11:50:34;97725.22;;;19.82;44.17
20160;BME280;50187;50.492;12.134;2022-09-23T11:53:28;97718.56;;;19.77;44.31
20160;BME280;50187;50.492;12.134;2022-09-23T11:56:23;97722.53;;;19.82;44.18
20160;BME280;50187;50.492;12.134;2022-09-23T12:02:32;97716.13;;;19.83;43.95
20160;BME280;50187;50.492;12.134;2022-09-23T12:05:27;97706.66;;;19.79;44.29
20160;BME280;50187;50.492;12.134;2022-09-23T12:08:26;97707.38;;;19.81;44.14
20160;BME280;50187;50.492;12.134;2022-09-23T12:12:02;97711.91;;;19.81;44.23
20160;BME280;50187;50.492;12.134;2022-09-23T12:15:03;97705.94;;;19.77;44.18
20160;BME280;50187;50.492;12.134;2022-09-23T12:18:14;97711.06;;;19.80;44.30
20160;BME280;50187;50.492;12.134;2022-09-23T12:21:25;97703.81;;;19.81;44.00
20160;BME280;50187;50.492;12.134;2022-09-23T12:25:50;97699.41;;;19.80;44.13
20160;BME280;50187;50.492;12.134;2022-09-23T12:28:33;97700.25;;;19.80;44.07
20160;BME280;50187;50.492;12.134;2022-09-23T12:31:22;97695.88;;;19.79;44.13
20160;BME280;50187;50.492;12.134;2022-09-23T12:34:28;97689.06;;;19.75;44.29
20160;BME280;50187;50.492;12.134;2022-09-23T12:37:36;97695.44;;;19.74;44.23
20160;BME280;50187;50.492;12.134;2022-09-23T12:40:28;97688.69;;;19.70;44.39
20160;BME280;50187;50.492;12.134;2022-09-23T12:46:23;97684.13;;;19.70;44.63
20160;BME280;50187;50.492;12.134;2022-09-23T12:49:24;97680.59;;;19.70;44.42
20160;BME280;50187;50.492;12.134;2022-09-23T12:54:56;97693.00;;;19.63;44.34
20160;BME280;50187;50.492;12.134;2022-09-23T12:57:41;97664.53;;;19.68;44.42
20160;BME280;50187;50.492;12.134;2022-09-23T13:00:26;97663.69;;;19.68;44.43
20160;BME280;50187;50.492;12.134;2022-09-23T13:03:20;97659.78;;;19.62;44.62
20160;BME280;50187;50.492;12.134;2022-09-23T13:06:32;97658.78;;;19.63;44.69
20160;BME280;50187;50.492;12.134;2022-09-23T13:09:30;97651.84;;;19.61;44.64
20160;BME280;50187;50.492;12.134;2022-09-23T13:12:24;97674.59;;;19.58;44.71
20160;BME280;50187;50.492;12.134;2022-09-23T13:15:38;97654.47;;;19.52;44.71
20160;BME280;50187;50.492;12.134;2022-09-23T13:18:23;97645.69;;;19.50;45.00
20160;BME280;50187;50.492;12.134;2022-09-23T13:21:17;97636.75;;;19.50;45.01
20160;BME280;50187;50.492;12.134;2022-09-23T13:27:19;97629.13;;;19.45;45.08
20160;BME280;50187;50.492;12.134;2022-09-23T13:30:23;97622.19;;;19.43;44.97
20160;BME280;50187;50.492;12.134;2022-09-23T13:36:26;97606.47;;;19.38;45.03
20160;BME280;50187;50.492;12.134;2022-09-23T13:39:27;97606.81;;;19.35;45.30
20160;BME280;50187;50.492;12.134;2022-09-23T13:42:23;97614.03;;;19.34;45.12
20160;BME280;50187;50.492;12.134;2022-09-23T13:45:16;97616.22;;;19.31;45.36
20160;BME280;50187;50.492;12.134;2022-09-23T13:48:10;97602.16;;;19.27;45.35
20160;BME280;50187;50.492;12.134;2022-09-23T13:50:55;97600.78;;;19.23;45.57
20160;BME280;50187;50.492;12.134;2022-09-23T13:53:40;97605.66;;;19.19;45.41
20160;BME280;50187;50.492;12.134;2022-09-23T13:56:28;97589.09;;;19.14;45.62
20160;BME280;50187;50.492;12.134;2022-09-23T14:02:12;97594.63;;;19.13;45.76
20160;BME280;50187;50.492;12.134;2022-09-23T14:04:58;97594.63;;;19.13;45.65
20160;BME280;50187;50.492;12.134;2022-09-23T14:07:55;97596.50;;;19.12;45.65
20160;BME280;50187;50.492;12.134;2022-09-23T14:10:43;97576.75;;;19.12;45.75
20160;BME280;50187;50.492;12.134;2022-09-23T14:13:34;97568.16;;;19.08;45.63
20160;BME280;50187;50.492;12.134;2022-09-23T14:16:23;97575.53;;;19.06;45.68
20160;BME280;50187;50.492;12.134;2022-09-23T14:19:18;97565.78;;;19.05;45.82
20160;BME280;50187;50.492;12.134;2022-09-23T14:22:05;97559.00;;;19.01;45.80
20160;BME280;50187;50.492;12.134;2022-09-23T14:24:56;97558.59;;;18.96;45.96
20160;BME280;50187;50.492;12.134;2022-09-23T14:27:43;97563.84;;;18.97;45.79
20160;BME280;50187;50.492;12.134;2022-09-23T14:30:29;97561.31;;;18.96;46.10
20160;BME280;50187;50.492;12.134;2022-09-23T14:33:16;97559.91;;;18.92;46.08
20160;BME280;50187;50.492;12.134;2022-09-23T14:36:23;97562.63;;;18.92;45.94
20160;BME280;50187;50.492;12.134;2022-09-23T14:39:27;97552.16;;;18.88;46.10
20160;BME280;50187;50.492;12.134;2022-09-23T14:42:13;97553.25;;;18.86;45.96
20160;BME280;50187;50.492;12.134;2022-09-23T14:44:58;97545.50;;;18.83;46.01
20160;BME280;50187;50.492;12.134;2022-09-23T14:47:56;97539.25;;;18.82;46.07
20160;BME280;50187;50.492;12.134;2022-09-23T14:50:49;97543.94;;;18.80;46.18
20160;BME280;50187;50.492;12.134;2022-09-23T14:56:22;97545.41;;;18.75;46.21
20160;BME280;50187;50.492;12.134;2022-09-23T14:59:24;97541.56;;;18.77;46.27
20160;BME280;50187;50.492;12.134;2022-09-23T15:02:30;97541.88;;;18.74;46.32
20160;BME280;50187;50.492;12.134;2022-09-23T15:05:21;97544.59;;;18.74;46.37
20160;BME280;50187;50.492;12.134;2022-09-23T15:08:09;97539.31;;;18.73;46.17
20160;BME280;50187;50.492;12.134;2022-09-23T15:10:56;97538.47;;;18.72;46.22
20160;BME280;50187;50.492;12.134;2022-09-23T15:13:45;97537.66;;;18.71;46.43
20160;BME280;50187;50.492;12.134;2022-09-23T15:16:33;97533.25;;;18.70;46.50
20160;BME280;50187;50.492;12.134;2022-09-23T15:19:19;97533.41;;;18.69;46.30
20160;BME280;50187;50.492;12.134;2022-09-23T15:22:07;97534.25;;;18.69;46.42
20160;BME280;50187;50.492;12.134;2022-09-23T15:25:07;97531.69;;;18.68;46.31
20160;BME280;50187;50.492;12.134;2022-09-23T15:28:01;97524.78;;;18.65;46.50
20160;BME280;50187;50.492;12.134;2022-09-23T15:30:48;97521.91;;;18.67;46.57
20160;BME280;50187;50.492;12.134;2022-09-23T15:33:33;97518.56;;;18.65;46.32
20160;BME280;50187;50.492;12.134;2022-09-23T15:36:23;97525.78;;;18.64;46.35
20160;BME280;50187;50.492;12.134;2022-09-23T15:39:10;97516.16;;;18.62;46.57
20160;BME280;50187;50.492;12.134;2022-09-23T15:41:55;97528.66;;;18.63;46.51
20160;BME280;50187;50.492;12.134;2022-09-23T15:44:41;97524.41;;;18.60;46.74
20160;BME280;50187;50.492;12.134;2022-09-23T15:47:26;97527.78;;;18.62;46.57
20160;BME280;50187;50.492;12.134;2022-09-23T15:50:11;97520.47;;;18.54;46.56
20160;BME280;50187;50.492;12.134;2022-09-23T15:52:57;97519.03;;;18.60;46.45
20160;BME280;50187;50.492;12.134;2022-09-23T15:55:43;97519.03;;;18.60;46.50
20160;BME280;50187;50.492;12.134;2022-09-23T15:58:29;97521.88;;;18.59;46.70
20160;BME280;50187;50.492;12.134;2022-09-23T16:01:22;97516.47;;;18.59;46.63
20160;BME280;50187;50.492;12.134;2022-09-23T16:04:10;97515.78;;;18.57;46.62
20160;BME280;50187;50.492;12.134;2022-09-23T16:06:56;97513.06;;;18.57;46.62
20160;BME280;50187;50.492;12.134;2022-09-23T16:09:43;97529.25;;;18.57;46.55
20160;BME280;50187;50.492;12.134;2022-09-23T16:12:28;97508.84;;;18.54;46.55
20160;BME280;50187;50.492;12.134;2022-09-23T16:15:17;97511.38;;;18.56;46.82
20160;BME280;50187;50.492;12.134;2022-09-23T16:18:03;97508.16;;;18.52;46.72
20160;BME280;50187;50.492;12.134;2022-09-23T16:20:50;97509.72;;;18.54;46.78
20160;BME280;50187;50.492;12.134;2022-09-23T16:23:37;97510.03;;;18.51;46.63
20160;BME280;50187;50.492;12.134;2022-09-23T16:26:30;97501.78;;;18.53;46.63
20160;BME280;50187;50.492;12.134;2022-09-23T16:29:18;97497.38;;;18.52;46.80
20160;BME280;50187;50.492;12.134;2022-09-23T16:32:03;97497.53;;;18.50;46.79
20160;BME280;50187;50.492;12.134;2022-09-23T16:34:48;97509.16;;;18.51;46.92
20160;BME280;50187;50.492;12.134;2022-09-23T16:37:34;97508.47;;;18.49;46.91